sensor_id;sensor_type;location;lat;lon;timestamp;temperature;humidity
25188;DHT22;13141;50.414;8.050;2023-02-07T00:00:38;3.70;99.90
25188;DHT22;13141;50.414;8.050;2023-02-07T00:03:04;3.70;99.90
25188;DHT22;13141;50.414;8.050;2023-02-07T00:05:30;3.70;99.90
25188;DHT22;13141;50.414;8.050;2023-02-07T00:07:55;3.80;99.90
25188;DHT22;13141;50.414;8.050;2023-02-07T00:10:21;3.80;99.90
25188;DHT22;13141;50.414;8.050;2023-02-07T00:12:47;3.80;99.90
25188;DHT22;13141;50.414;8.050;2023-02-07T00:15:12;3.80;99.90
25188;DHT22;13141;50.414;8.050;2023-02-07T00:17:38;3.80;99.90
25188;DHT22;13141;50.414;8.050;2023-02-07T00:20:04;3.80;99.90
25188;DHT22;13141;50.414;8.050;2023-02-07T00:22:30;3.80;99.90
25188;DHT22;13141;50.414;8.050;2023-02-07T00:24:55;3.80;99.90
25188;DHT22;13141;50.414;8.050;2023-02-07T00:27:21;3.80;99.90
25188;DHT22;13141;50.414;8.050;2023-02-07T00:29:47;4.10;99.90
25188;DHT22;13141;50.414;8.050;2023-02-07T00:32:12;3.80;99.90
25188;DHT22;13141;50.414;8.050;2023-02-07T00:34:38;3.80;99.90
25188;DHT22;13141;50.414;8.050;2023-02-07T00:37:05;3.80;99.90
25188;DHT22;13141;50.414;8.050;2023-02-07T00:39:30;3.80;99.90
25188;DHT22;13141;50.414;8.050;2023-02-07T00:41:56;3.80;99.90
25188;DHT22;13141;50.414;8.050;2023-02-07T00:44:22;3.80;99.90
25188;DHT22;13141;50.414;8.050;2023-02-07T00:46:48;3.80;99.90
25188;DHT22;13141;50.414;8.050;2023-02-07T00:49:13;3.80;99.90
25188;DHT22;13141;50.414;8.050;2023-02-07T00:51:39;3.90;99.90
25188;DHT22;13141;50.414;8.050;2023-02-07T00:54:05;3.80;99.90
25188;DHT22;13141;50.414;8.050;2023-02-07T00:56:31;3.80;99.90
25188;DHT22;13141;50.414;8.050;2023-02-07T00:58:57;3.80;99.90
25188;DHT22;13141;50.414;8.050;2023-02-07T01:01:23;3.80;99.90
25188;DHT22;13141;50.414;8.050;2023-02-07T01:03:49;3.80;99.90
25188;DHT22;13141;50.414;8.050;2023-02-07T01:06:15;3.80;99.90
25188;DHT22;13141;50.414;8.050;2023-02-07T01:08:41;3.70;99.90
25188;DHT22;13141;50.414;8.050;2023-02-07T01:11:12;3.70;99.90
25188;DHT22;13141;50.414;8.050;2023-02-07T01:13:41;3.70;99.90
25188;DHT22;13141;50.414;8.050;2023-02-07T01:16:24;3.60;99.90
25188;DHT22;13141;50.414;8.050;2023-02-07T01:18:50;3.60;99.90
25188;DHT22;13141;50.414;8.050;2023-02-07T01:21:21;3.60;99.90
25188;DHT22;13141;50.414;8.050;2023-02-07T01:23:47;3.60;99.90
25188;DHT22;13141;50.414;8.050;2023-02-07T01:26:12;3.50;99.90
25188;DHT22;13141;50.414;8.050;2023-02-07T01:28:38;3.50;99.90
25188;DHT22;13141;50.414;8.050;2023-02-07T01:31:09;3.50;99.90
25188;DHT22;13141;50.414;8.050;2023-02-07T01:33:35;3.50;99.90
25188;DHT22;13141;50.414;8.050;2023-02-07T01:36:13;3.60;99.90
25188;DHT22;13141;50.414;8.050;2023-02-07T01:38:38;3.60;99.90
25188;DHT22;13141;50.414;8.050;2023-02-07T01:41:04;3.60;99.90
25188;DHT22;13141;50.414;8.050;2023-02-07T01:43:30;3.60;99.90
25188;DHT22;13141;50.414;8.050;2023-02-07T01:45:56;3.60;99.90
25188;DHT22;13141;50.414;8.050;2023-02-07T01:48:26;3.60;99.90
25188;DHT22;13141;50.414;8.050;2023-02-07T01:50:54;3.60;99.90
25188;DHT22;13141;50.414;8.050;2023-02-07T01:53:23;3.60;99.90
25188;DHT22;13141;50.414;8.050;2023-02-07T01:55:52;3.50;99.90
25188;DHT22;13141;50.414;8.050;2023-02-07T01:58:18;3.50;99.90
25188;DHT22;13141;50.414;8.050;2023-02-07T02:00:45;3.40;99.90
25188;DHT22;13141;50.414;8.050;2023-02-07T02:03:11;3.40;99.90
25188;DHT22;13141;50.414;8.050;2023-02-07T02:05:37;3.30;99.90
25188;DHT22;13141;50.414;8.050;2023-02-07T02:08:04;3.30;99.90
25188;DHT22;13141;50.414;8.050;2023-02-07T02:16:09;3.10;99.90
25188;DHT22;13141;50.414;8.050;2023-02-07T02:22:06;3.10;99.90
25188;DHT22;13141;50.414;8.050;2023-02-07T02:30:08;3.10;99.90
25188;DHT22;13141;50.414;8.050;2023-02-07T02:32:50;3.10;99.90
25188;DHT22;13141;50.414;8.050;2023-02-07T02:35:30;3.10;99.90
25188;DHT22;13141;50.414;8.050;2023-02-07T02:38:17;3.00;99.90
25188;DHT22;13141;50.414;8.050;2023-02-07T02:41:30;3.00;99.90
25188;DHT22;13141;50.414;8.050;2023-02-07T02:44:06;2.90;99.90
25188;DHT22;13141;50.414;8.050;2023-02-07T02:46:36;2.90;99.90
25188;DHT22;13141;50.414;8.050;2023-02-07T02:49:06;2.90;99.90
25188;DHT22;13141;50.414;8.050;2023-02-07T02:51:32;2.90;99.90
25188;DHT22;13141;50.414;8.050;2023-02-07T02:53:59;2.90;99.90
25188;DHT22;13141;50.414;8.050;2023-02-07T03:05:06;2.90;99.90
25188;DHT22;13141;50.414;8.050;2023-02-07T03:07:47;2.90;99.90
25188;DHT22;13141;50.414;8.050;2023-02-07T03:10:37;2.80;99.90
25188;DHT22;13141;50.414;8.050;2023-02-07T03:16:10;2.80;99.90
25188;DHT22;13141;50.414;8.050;2023-02-07T03:21:36;2.70;99.90
25188;DHT22;13141;50.414;8.050;2023-02-07T03:24:07;2.70;99.90
25188;DHT22;13141;50.414;8.050;2023-02-07T03:26:33;2.70;99.90
25188;DHT22;13141;50.414;8.050;2023-02-07T03:29:00;2.60;99.90
25188;DHT22;13141;50.414;8.050;2023-02-07T03:31:29;2.60;99.90
25188;DHT22;13141;50.414;8.050;2023-02-07T03:34:02;2.60;99.90
25188;DHT22;13141;50.414;8.050;2023-02-07T03:36:42;2.80;99.90
25188;DHT22;13141;50.414;8.050;2023-02-07T03:39:10;2.50;99.90
25188;DHT22;13141;50.414;8.050;2023-02-07T03:41:48;2.50;99.90
25188;DHT22;13141;50.414;8.050;2023-02-07T03:44:16;2.40;99.90
25188;DHT22;13141;50.414;8.050;2023-02-07T03:46:44;2.30;99.90
25188;DHT22;13141;50.414;8.050;2023-02-07T03:49:13;2.30;99.90
25188;DHT22;13141;50.414;8.050;2023-02-07T03:51:42;2.30;99.90
25188;DHT22;13141;50.414;8.050;2023-02-07T03:54:07;2.30;99.90
25188;DHT22;13141;50.414;8.050;2023-02-07T03:56:34;2.40;99.90
25188;DHT22;13141;50.414;8.050;2023-02-07T03:59:00;2.30;99.90
25188;DHT22;13141;50.414;8.050;2023-02-07T04:01:26;2.30;99.90
25188;DHT22;13141;50.414;8.050;2023-02-07T04:03:52;2.30;99.90
25188;DHT22;13141;50.414;8.050;2023-02-07T04:06:17;2.30;99.90
25188;DHT22;13141;50.414;8.050;2023-02-07T04:08:43;2.30;99.90
25188;DHT22;13141;50.414;8.050;2023-02-07T04:11:09;2.30;99.90
25188;DHT22;13141;50.414;8.050;2023-02-07T04:13:35;2.30;99.90
25188;DHT22;13141;50.414;8.050;2023-02-07T04:16:01;2.20;99.90
25188;DHT22;13141;50.414;8.050;2023-02-07T04:18:26;2.10;99.90
25188;DHT22;13141;50.414;8.050;2023-02-07T04:21:00;2.10;99.90
25188;DHT22;13141;50.414;8.050;2023-02-07T04:23:25;2.00;99.90
25188;DHT22;13141;50.414;8.050;2023-02-07T04:25:51;2.00;99.90
25188;DHT22;13141;50.414;8.050;2023-02-07T04:28:16;2.00;99.90
25188;DHT22;13141;50.414;8.050;2023-02-07T04:30:42;2.00;99.90
25188;DHT22;13141;50.414;8.050;2023-02-07T04:33:08;1.90;99.90
25188;DHT22;13141;50.414;8.050;2023-02-07T04:35:34;1.90;99.90
25188;DHT22;13141;50.414;8.050;2023-02-07T04:38:00;1.90;99.90
25188;DHT22;13141;50.414;8.050;2023-02-07T04:40:25;1.90;99.90
25188;DHT22;13141;50.414;8.050;2023-02-07T04:42:51;1.90;99.90
25188;DHT22;13141;50.414;8.050;2023-02-07T04:45:16;1.90;99.90
25188;DHT22;13141;50.414;8.050;2023-02-07T04:47:42;1.90;99.90
25188;DHT22;13141;50.414;8.050;2023-02-07T04:50:07;1.90;99.90
25188;DHT22;13141;50.414;8.050;2023-02-07T04:52:33;1.80;99.90
25188;DHT22;13141;50.414;8.050;2023-02-07T04:54:58;1.90;99.90
25188;DHT22;13141;50.414;8.050;2023-02-07T04:57:24;1.80;99.90
25188;DHT22;13141;50.414;8.050;2023-02-07T04:59:49;2.00;99.90
25188;DHT22;13141;50.414;8.050;2023-02-07T05:02:15;1.90;99.90
25188;DHT22;13141;50.414;8.050;2023-02-07T05:04:41;1.80;99.90
25188;DHT22;13141;50.414;8.050;2023-02-07T05:07:06;1.80;99.90
25188;DHT22;13141;50.414;8.050;2023-02-07T05:09:32;1.80;99.90
25188;DHT22;13141;50.414;8.050;2023-02-07T05:11:57;1.80;99.90
25188;DHT22;13141;50.414;8.050;2023-02-07T05:14:23;1.90;99.90
25188;DHT22;13141;50.414;8.050;2023-02-07T05:16:48;1.70;99.90
25188;DHT22;13141;50.414;8.050;2023-02-07T05:19:15;1.80;99.90
25188;DHT22;13141;50.414;8.050;2023-02-07T05:21:40;2.00;99.90
25188;DHT22;13141;50.414;8.050;2023-02-07T05:24:06;1.70;99.90
25188;DHT22;13141;50.414;8.050;2023-02-07T05:26:31;1.80;99.90
25188;DHT22;13141;50.414;8.050;2023-02-07T05:28:57;1.70;99.90
25188;DHT22;13141;50.414;8.050;2023-02-07T05:31:22;1.90;99.90
25188;DHT22;13141;50.414;8.050;2023-02-07T05:34:08;1.70;99.90
25188;DHT22;13141;50.414;8.050;2023-02-07T05:36:34;1.70;99.90
25188;DHT22;13141;50.414;8.050;2023-02-07T05:39:00;1.60;99.90
25188;DHT22;13141;50.414;8.050;2023-02-07T05:41:25;1.60;99.90
25188;DHT22;13141;50.414;8.050;2023-02-07T05:43:51;1.60;99.90
25188;DHT22;13141;50.414;8.050;2023-02-07T05:46:16;1.70;99.90
25188;DHT22;13141;50.414;8.050;2023-02-07T05:48:41;1.60;99.90
25188;DHT22;13141;50.414;8.050;2023-02-07T05:51:07;1.60;99.90
25188;DHT22;13141;50.414;8.050;2023-02-07T05:53:32;1.60;99.90
25188;DHT22;13141;50.414;8.050;2023-02-07T05:55:58;1.50;99.90
25188;DHT22;13141;50.414;8.050;2023-02-07T05:58:23;1.60;99.90
25188;DHT22;13141;50.414;8.050;2023-02-07T06:00:49;1.50;99.90
25188;DHT22;13141;50.414;8.050;2023-02-07T06:03:15;1.10;99.90
25188;DHT22;13141;50.414;8.050;2023-02-07T06:05:40;1.40;99.90
25188;DHT22;13141;50.414;8.050;2023-02-07T06:08:06;1.40;99.90
25188;DHT22;13141;50.414;8.050;2023-02-07T06:10:31;1.30;99.90
25188;DHT22;13141;50.414;8.050;2023-02-07T06:12:57;1.30;99.90
25188;DHT22;13141;50.414;8.050;2023-02-07T06:15:23;1.30;99.90
25188;DHT22;13141;50.414;8.050;2023-02-07T06:17:48;1.30;99.90
25188;DHT22;13141;50.414;8.050;2023-02-07T06:20:14;1.20;99.90
25188;DHT22;13141;50.414;8.050;2023-02-07T06:22:40;1.20;99.90
25188;DHT22;13141;50.414;8.050;2023-02-07T06:25:06;1.20;99.90
25188;DHT22;13141;50.414;8.050;2023-02-07T06:27:37;1.20;99.90
25188;DHT22;13141;50.414;8.050;2023-02-07T06:30:03;1.20;99.90
25188;DHT22;13141;50.414;8.050;2023-02-07T06:32:28;1.20;99.90
25188;DHT22;13141;50.414;8.050;2023-02-07T06:34:54;1.30;99.90
25188;DHT22;13141;50.414;8.050;2023-02-07T06:37:19;1.30;99.90
25188;DHT22;13141;50.414;8.050;2023-02-07T06:39:45;1.20;99.90
25188;DHT22;13141;50.414;8.050;2023-02-07T06:42:10;1.20;99.90
25188;DHT22;13141;50.414;8.050;2023-02-07T06:44:36;1.20;99.90
25188;DHT22;13141;50.414;8.050;2023-02-07T06:47:01;1.20;99.90
25188;DHT22;13141;50.414;8.050;2023-02-07T06:49:28;1.20;99.90
25188;DHT22;13141;50.414;8.050;2023-02-07T06:51:54;1.20;99.90
25188;DHT22;13141;50.414;8.050;2023-02-07T06:54:19;1.10;99.90
25188;DHT22;13141;50.414;8.050;2023-02-07T06:56:45;1.10;99.90
25188;DHT22;13141;50.414;8.050;2023-02-07T06:59:10;1.00;99.90
25188;DHT22;13141;50.414;8.050;2023-02-07T07:01:36;1.10;99.90
25188;DHT22;13141;50.414;8.050;2023-02-07T07:04:01;1.00;99.90
25188;DHT22;13141;50.414;8.050;2023-02-07T07:06:27;1.40;99.90
25188;DHT22;13141;50.414;8.050;2023-02-07T07:08:52;1.00;99.90
25188;DHT22;13141;50.414;8.050;2023-02-07T07:11:18;1.00;99.90
25188;DHT22;13141;50.414;8.050;2023-02-07T07:13:44;1.00;99.90
25188;DHT22;13141;50.414;8.050;2023-02-07T07:16:11;1.00;99.90
25188;DHT22;13141;50.414;8.050;2023-02-07T07:18:37;1.30;99.90
25188;DHT22;13141;50.414;8.050;2023-02-07T07:21:03;1.00;99.90
25188;DHT22;13141;50.414;8.050;2023-02-07T07:23:29;1.00;99.90
25188;DHT22;13141;50.414;8.050;2023-02-07T07:25:55;1.00;99.90
25188;DHT22;13141;50.414;8.050;2023-02-07T07:28:20;1.10;99.90
25188;DHT22;13141;50.414;8.050;2023-02-07T07:30:46;0.70;99.90
25188;DHT22;13141;50.414;8.050;2023-02-07T07:33:15;1.10;99.90
25188;DHT22;13141;50.414;8.050;2023-02-07T07:35:40;1.10;99.90
25188;DHT22;13141;50.414;8.050;2023-02-07T07:38:06;0.30;99.90
25188;DHT22;13141;50.414;8.050;2023-02-07T07:40:31;1.10;99.90
25188;DHT22;13141;50.414;8.050;2023-02-07T07:42:57;1.10;99.90
25188;DHT22;13141;50.414;8.050;2023-02-07T07:45:22;1.10;99.90
25188;DHT22;13141;50.414;8.050;2023-02-07T07:47:48;1.10;99.90
25188;DHT22;13141;50.414;8.050;2023-02-07T07:50:14;1.10;99.90
25188;DHT22;13141;50.414;8.050;2023-02-07T07:52:39;1.10;99.90
25188;DHT22;13141;50.414;8.050;2023-02-07T07:55:05;1.10;99.90
25188;DHT22;13141;50.414;8.050;2023-02-07T07:57:31;0.40;99.90
25188;DHT22;13141;50.414;8.050;2023-02-07T07:59:57;1.10;99.90
25188;DHT22;13141;50.414;8.050;2023-02-07T08:02:23;1.10;99.90
25188;DHT22;13141;50.414;8.050;2023-02-07T08:04:49;1.20;99.90
25188;DHT22;13141;50.414;8.050;2023-02-07T08:07:14;1.20;99.90
25188;DHT22;13141;50.414;8.050;2023-02-07T08:09:40;1.20;99.90
25188;DHT22;13141;50.414;8.050;2023-02-07T08:12:05;1.30;99.90
25188;DHT22;13141;50.414;8.050;2023-02-07T08:14:31;1.30;99.90
25188;DHT22;13141;50.414;8.050;2023-02-07T08:16:57;1.20;99.90
25188;DHT22;13141;50.414;8.050;2023-02-07T08:19:22;1.30;99.90
25188;DHT22;13141;50.414;8.050;2023-02-07T08:21:48;1.30;99.90
25188;DHT22;13141;50.414;8.050;2023-02-07T08:24:13;1.30;99.90
25188;DHT22;13141;50.414;8.050;2023-02-07T08:26:39;1.30;99.90
25188;DHT22;13141;50.414;8.050;2023-02-07T08:29:05;1.40;99.90
25188;DHT22;13141;50.414;8.050;2023-02-07T08:31:30;1.40;99.90
25188;DHT22;13141;50.414;8.050;2023-02-07T08:33:56;1.40;99.90
25188;DHT22;13141;50.414;8.050;2023-02-07T08:36:21;1.40;99.90
25188;DHT22;13141;50.414;8.050;2023-02-07T08:38:47;1.40;99.90
25188;DHT22;13141;50.414;8.050;2023-02-07T08:41:12;1.50;99.90
25188;DHT22;13141;50.414;8.050;2023-02-07T08:43:38;1.50;99.90
25188;DHT22;13141;50.414;8.050;2023-02-07T08:46:03;1.60;99.90
25188;DHT22;13141;50.414;8.050;2023-02-07T08:48:29;1.60;99.90
25188;DHT22;13141;50.414;8.050;2023-02-07T08:50:55;1.70;99.90
25188;DHT22;13141;50.414;8.050;2023-02-07T08:53:21;1.70;99.90
25188;DHT22;13141;50.414;8.050;2023-02-07T08:55:46;1.80;99.90
25188;DHT22;13141;50.414;8.050;2023-02-07T08:58:12;1.90;99.90
25188;DHT22;13141;50.414;8.050;2023-02-07T09:00:38;2.00;99.90
25188;DHT22;13141;50.414;8.050;2023-02-07T09:03:04;2.10;99.90
25188;DHT22;13141;50.414;8.050;2023-02-07T09:05:30;2.30;99.90
25188;DHT22;13141;50.414;8.050;2023-02-07T09:08:01;2.50;99.90
25188;DHT22;13141;50.414;8.050;2023-02-07T09:10:27;2.80;99.90
25188;DHT22;13141;50.414;8.050;2023-02-07T09:12:52;3.20;99.90
25188;DHT22;13141;50.414;8.050;2023-02-07T09:15:18;3.50;99.90
25188;DHT22;13141;50.414;8.050;2023-02-07T09:17:43;3.80;99.90
25188;DHT22;13141;50.414;8.050;2023-02-07T09:20:10;4.00;99.90
25188;DHT22;13141;50.414;8.050;2023-02-07T09:22:36;4.20;99.50
25188;DHT22;13141;50.414;8.050;2023-02-07T09:25:21;4.50;99.60
25188;DHT22;13141;50.414;8.050;2023-02-07T09:27:47;4.80;99.60
25188;DHT22;13141;50.414;8.050;2023-02-07T09:30:12;5.10;99.40
25188;DHT22;13141;50.414;8.050;2023-02-07T09:32:38;5.40;99.20
25188;DHT22;13141;50.414;8.050;2023-02-07T09:35:04;5.60;98.00
25188;DHT22;13141;50.414;8.050;2023-02-07T09:37:30;5.80;99.20
25188;DHT22;13141;50.414;8.050;2023-02-07T09:39:55;5.90;97.50
25188;DHT22;13141;50.414;8.050;2023-02-07T09:42:39;6.00;97.00
25188;DHT22;13141;50.414;8.050;2023-02-07T09:45:11;6.10;97.60
25188;DHT22;13141;50.414;8.050;2023-02-07T09:47:39;6.40;97.40
25188;DHT22;13141;50.414;8.050;2023-02-07T09:50:12;6.60;97.60
25188;DHT22;13141;50.414;8.050;2023-02-07T09:52:55;6.70;95.90
25188;DHT22;13141;50.414;8.050;2023-02-07T09:55:28;6.60;95.10
25188;DHT22;13141;50.414;8.050;2023-02-07T09:58:05;6.80;96.10
25188;DHT22;13141;50.414;8.050;2023-02-07T10:00:33;7.00;96.10
25188;DHT22;13141;50.414;8.050;2023-02-07T10:03:08;7.10;94.50
25188;DHT22;13141;50.414;8.050;2023-02-07T10:05:51;7.20;94.70
25188;DHT22;13141;50.414;8.050;2023-02-07T10:08:19;7.40;94.80
25188;DHT22;13141;50.414;8.050;2023-02-07T10:11:06;7.50;95.00
25188;DHT22;13141;50.414;8.050;2023-02-07T10:21:55;8.20;94.10
25188;DHT22;13141;50.414;8.050;2023-02-07T10:24:49;8.30;93.50
25188;DHT22;13141;50.414;8.050;2023-02-07T10:27:28;8.50;94.00
25188;DHT22;13141;50.414;8.050;2023-02-07T10:29:59;8.60;93.90
25188;DHT22;13141;50.414;8.050;2023-02-07T10:32:31;8.80;92.90
25188;DHT22;13141;50.414;8.050;2023-02-07T10:35:06;9.00;92.60
25188;DHT22;13141;50.414;8.050;2023-02-07T10:37:37;9.10;92.80
25188;DHT22;13141;50.414;8.050;2023-02-07T10:42:36;9.40;92.50
25188;DHT22;13141;50.414;8.050;2023-02-07T10:45:02;9.50;91.50
25188;DHT22;13141;50.414;8.050;2023-02-07T10:47:29;9.50;90.60
25188;DHT22;13141;50.414;8.050;2023-02-07T10:49:55;9.70;91.40
25188;DHT22;13141;50.414;8.050;2023-02-07T10:55:01;10.00;90.60
25188;DHT22;13141;50.414;8.050;2023-02-07T10:57:29;10.10;90.90
25188;DHT22;13141;50.414;8.050;2023-02-07T11:10:26;10.50;90.10
25188;DHT22;13141;50.414;8.050;2023-02-07T11:12:56;10.80;90.90
25188;DHT22;13141;50.414;8.050;2023-02-07T11:18:34;11.10;86.90
25188;DHT22;13141;50.414;8.050;2023-02-07T11:21:22;11.10;85.30
25188;DHT22;13141;50.414;8.050;2023-02-07T11:23:50;11.20;86.90
25188;DHT22;13141;50.414;8.050;2023-02-07T11:26:18;11.30;85.10
25188;DHT22;13141;50.414;8.050;2023-02-07T11:28:45;11.50;85.60
25188;DHT22;13141;50.414;8.050;2023-02-07T11:31:13;11.60;85.80
25188;DHT22;13141;50.414;8.050;2023-02-07T11:33:41;11.70;85.90
25188;DHT22;13141;50.414;8.050;2023-02-07T11:36:29;11.90;85.10
25188;DHT22;13141;50.414;8.050;2023-02-07T11:38:59;12.00;81.80
25188;DHT22;13141;50.414;8.050;2023-02-07T11:41:28;12.10;84.90
25188;DHT22;13141;50.414;8.050;2023-02-07T11:43:56;12.20;80.40
25188;DHT22;13141;50.414;8.050;2023-02-07T11:46:29;12.40;80.10
25188;DHT22;13141;50.414;8.050;2023-02-07T11:48:57;12.50;78.80
25188;DHT22;13141;50.414;8.050;2023-02-07T11:51:23;12.70;79.70
25188;DHT22;13141;50.414;8.050;2023-02-07T11:53:54;12.80;80.80
25188;DHT22;13141;50.414;8.050;2023-02-07T11:56:24;13.00;75.20
25188;DHT22;13141;50.414;8.050;2023-02-07T11:58:51;13.20;76.20
25188;DHT22;13141;50.414;8.050;2023-02-07T12:01:26;13.30;77.00
25188;DHT22;13141;50.414;8.050;2023-02-07T12:04:08;13.40;75.80
25188;DHT22;13141;50.414;8.050;2023-02-07T12:06:40;13.60;76.10
25188;DHT22;13141;50.414;8.050;2023-02-07T12:09:21;13.80;75.60
25188;DHT22;13141;50.414;8.050;2023-02-07T12:11:49;13.90;73.10
25188;DHT22;13141;50.414;8.050;2023-02-07T12:14:40;14.10;70.40
25188;DHT22;13141;50.414;8.050;2023-02-07T12:17:15;14.10;70.10
25188;DHT22;13141;50.414;8.050;2023-02-07T12:19:53;14.20;69.70
25188;DHT22;13141;50.414;8.050;2023-02-07T12:22:24;14.20;67.30
25188;DHT22;13141;50.414;8.050;2023-02-07T12:25:08;14.30;67.40
25188;DHT22;13141;50.414;8.050;2023-02-07T12:27:38;14.50;64.10
25188;DHT22;13141;50.414;8.050;2023-02-07T12:30:29;14.60;63.00
25188;DHT22;13141;50.414;8.050;2023-02-07T12:35:33;14.40;66.40
25188;DHT22;13141;50.414;8.050;2023-02-07T12:43:38;15.00;63.20
25188;DHT22;13141;50.414;8.050;2023-02-07T12:46:26;15.30;63.30
25188;DHT22;13141;50.414;8.050;2023-02-07T12:54:52;15.50;62.50
25188;DHT22;13141;50.414;8.050;2023-02-07T12:57:28;15.60;60.30
25188;DHT22;13141;50.414;8.050;2023-02-07T13:00:19;15.50;54.30
25188;DHT22;13141;50.414;8.050;2023-02-07T13:05:59;15.10;61.40
25188;DHT22;13141;50.414;8.050;2023-02-07T13:08:43;15.30;59.10
25188;DHT22;13141;50.414;8.050;2023-02-07T13:19:37;15.90;57.60
25188;DHT22;13141;50.414;8.050;2023-02-07T13:22:46;15.90;56.60
25188;DHT22;13141;50.414;8.050;2023-02-07T13:25:20;15.90;55.60
25188;DHT22;13141;50.414;8.050;2023-02-07T13:27:48;16.00;55.20
25188;DHT22;13141;50.414;8.050;2023-02-07T13:30:17;16.00;56.50
25188;DHT22;13141;50.414;8.050;2023-02-07T13:32:44;16.10;55.50
25188;DHT22;13141;50.414;8.050;2023-02-07T13:35:21;16.20;52.70
25188;DHT22;13141;50.414;8.050;2023-02-07T13:38:05;16.30;53.40
25188;DHT22;13141;50.414;8.050;2023-02-07T13:49:15;16.50;55.70
25188;DHT22;13141;50.414;8.050;2023-02-07T13:51:54;16.40;55.00
25188;DHT22;13141;50.414;8.050;2023-02-07T13:57:50;16.50;55.10
25188;DHT22;13141;50.414;8.050;2023-02-07T14:03:23;16.30;54.80
25188;DHT22;13141;50.414;8.050;2023-02-07T14:06:15;16.20;53.80
25188;DHT22;13141;50.414;8.050;2023-02-07T14:08:42;16.10;54.20
25188;DHT22;13141;50.414;8.050;2023-02-07T14:11:25;16.20;53.70
25188;DHT22;13141;50.414;8.050;2023-02-07T14:14:22;16.30;54.20
25188;DHT22;13141;50.414;8.050;2023-02-07T14:17:05;16.40;53.80
25188;DHT22;13141;50.414;8.050;2023-02-07T14:27:42;16.10;53.80
25188;DHT22;13141;50.414;8.050;2023-02-07T14:33:21;16.40;54.70
25188;DHT22;13141;50.414;8.050;2023-02-07T14:36:17;16.00;54.70
25188;DHT22;13141;50.414;8.050;2023-02-07T14:41:42;15.80;54.10
25188;DHT22;13141;50.414;8.050;2023-02-07T14:44:42;15.70;51.80
25188;DHT22;13141;50.414;8.050;2023-02-07T14:47:25;15.40;53.00
25188;DHT22;13141;50.414;8.050;2023-02-07T14:49:55;15.20;53.30
25188;DHT22;13141;50.414;8.050;2023-02-07T14:52:25;15.30;53.60
25188;DHT22;13141;50.414;8.050;2023-02-07T14:54:58;15.20;54.00
25188;DHT22;13141;50.414;8.050;2023-02-07T14:57:32;15.20;53.70
25188;DHT22;13141;50.414;8.050;2023-02-07T15:02:52;14.90;54.20
25188;DHT22;13141;50.414;8.050;2023-02-07T15:05:31;14.80;53.70
25188;DHT22;13141;50.414;8.050;2023-02-07T15:10:32;14.60;54.70
25188;DHT22;13141;50.414;8.050;2023-02-07T15:12:59;14.50;55.10
25188;DHT22;13141;50.414;8.050;2023-02-07T15:15:27;14.50;53.80
25188;DHT22;13141;50.414;8.050;2023-02-07T15:17:56;14.40;53.70
25188;DHT22;13141;50.414;8.050;2023-02-07T15:20:30;14.20;52.50
25188;DHT22;13141;50.414;8.050;2023-02-07T15:22:58;14.10;52.10
25188;DHT22;13141;50.414;8.050;2023-02-07T15:25:25;14.00;53.40
25188;DHT22;13141;50.414;8.050;2023-02-07T15:31:14;13.80;53.80
25188;DHT22;13141;50.414;8.050;2023-02-07T15:33:50;13.60;54.40
25188;DHT22;13141;50.414;8.050;2023-02-07T15:36:47;13.40;54.50
25188;DHT22;13141;50.414;8.050;2023-02-07T15:39:16;13.20;54.30
25188;DHT22;13141;50.414;8.050;2023-02-07T15:41:46;13.10;54.10
25188;DHT22;13141;50.414;8.050;2023-02-07T15:44:25;12.80;54.30
25188;DHT22;13141;50.414;8.050;2023-02-07T15:47:03;12.80;55.60
25188;DHT22;13141;50.414;8.050;2023-02-07T15:49:37;12.50;54.60
25188;DHT22;13141;50.414;8.050;2023-02-07T15:52:22;12.40;54.30
25188;DHT22;13141;50.414;8.050;2023-02-07T15:54:50;12.10;54.70
25188;DHT22;13141;50.414;8.050;2023-02-07T15:57:35;12.00;54.80
25188;DHT22;13141;50.414;8.050;2023-02-07T16:00:07;11.80;54.70
25188;DHT22;13141;50.414;8.050;2023-02-07T16:02:36;11.60;55.10
25188;DHT22;13141;50.414;8.050;2023-02-07T16:05:09;11.30;55.30
25188;DHT22;13141;50.414;8.050;2023-02-07T16:07:35;11.10;56.10
25188;DHT22;13141;50.414;8.050;2023-02-07T16:13:15;10.60;57.30
25188;DHT22;13141;50.414;8.050;2023-02-07T16:16:05;10.40;56.20
25188;DHT22;13141;50.414;8.050;2023-02-07T16:18:40;10.10;56.50
25188;DHT22;13141;50.414;8.050;2023-02-07T16:21:11;9.90;57.80
25188;DHT22;13141;50.414;8.050;2023-02-07T16:23:37;9.70;58.40
25188;DHT22;13141;50.414;8.050;2023-02-07T16:26:03;9.50;58.20
25188;DHT22;13141;50.414;8.050;2023-02-07T16:28:30;9.30;58.60
25188;DHT22;13141;50.414;8.050;2023-02-07T16:30:56;9.20;58.90
25188;DHT22;13141;50.414;8.050;2023-02-07T16:33:22;9.10;58.70
25188;DHT22;13141;50.414;8.050;2023-02-07T16:35:48;9.00;58.40
25188;DHT22;13141;50.414;8.050;2023-02-07T16:38:13;8.90;58.40
25188;DHT22;13141;50.414;8.050;2023-02-07T16:40:39;8.90;58.60
25188;DHT22;13141;50.414;8.050;2023-02-07T16:43:05;8.80;59.00
25188;DHT22;13141;50.414;8.050;2023-02-07T16:45:31;8.70;58.80
25188;DHT22;13141;50.414;8.050;2023-02-07T16:47:58;8.60;59.00
25188;DHT22;13141;50.414;8.050;2023-02-07T16:50:26;8.40;59.90
25188;DHT22;13141;50.414;8.050;2023-02-07T16:52:54;8.40;60.00
25188;DHT22;13141;50.414;8.050;2023-02-07T16:55:25;8.30;60.20
25188;DHT22;13141;50.414;8.050;2023-02-07T16:57:52;8.30;59.70
25188;DHT22;13141;50.414;8.050;2023-02-07T17:00:23;8.40;61.00
25188;DHT22;13141;50.414;8.050;2023-02-07T17:02:50;8.00;60.80
25188;DHT22;13141;50.414;8.050;2023-02-07T17:05:18;7.90;61.10
25188;DHT22;13141;50.414;8.050;2023-02-07T17:07:44;7.80;60.80
25188;DHT22;13141;50.414;8.050;2023-02-07T17:10:26;7.70;60.80
25188;DHT22;13141;50.414;8.050;2023-02-07T17:12:53;7.60;61.30
25188;DHT22;13141;50.414;8.050;2023-02-07T17:15:19;7.50;61.20
25188;DHT22;13141;50.414;8.050;2023-02-07T17:17:45;7.40;62.00
25188;DHT22;13141;50.414;8.050;2023-02-07T17:20:25;7.30;61.60
25188;DHT22;13141;50.414;8.050;2023-02-07T17:22:51;7.30;62.00
25188;DHT22;13141;50.414;8.050;2023-02-07T17:25:18;7.30;61.30
25188;DHT22;13141;50.414;8.050;2023-02-07T17:27:44;7.20;62.10
25188;DHT22;13141;50.414;8.050;2023-02-07T17:30:25;7.20;63.20
25188;DHT22;13141;50.414;8.050;2023-02-07T17:32:51;6.60;62.90
25188;DHT22;13141;50.414;8.050;2023-02-07T17:35:17;7.10;63.60
25188;DHT22;13141;50.414;8.050;2023-02-07T17:37:45;6.80;65.60
25188;DHT22;13141;50.414;8.050;2023-02-07T17:42:50;6.50;66.50
25188;DHT22;13141;50.414;8.050;2023-02-07T17:45:16;6.50;66.80
25188;DHT22;13141;50.414;8.050;2023-02-07T17:47:41;6.50;67.10
25188;DHT22;13141;50.414;8.050;2023-02-07T17:53:08;6.40;69.30
25188;DHT22;13141;50.414;8.050;2023-02-07T17:55:34;6.40;70.90
25188;DHT22;13141;50.414;8.050;2023-02-07T17:58:00;6.30;71.60
25188;DHT22;13141;50.414;8.050;2023-02-07T18:00:35;6.20;71.90
25188;DHT22;13141;50.414;8.050;2023-02-07T18:03:04;6.20;72.50
25188;DHT22;13141;50.414;8.050;2023-02-07T18:05:31;6.20;72.90